createdAt,value
2023-05-13T00:02:27.900Z,98120.63
2023-05-13T00:12:34.507Z,97746.94
2023-05-13T00:22:40.989Z,96955.75
2023-05-13T00:32:48.102Z,96687.94
2023-05-13T00:42:55.779Z,96620.28
2023-05-13T00:53:03.652Z,96725.47
2023-05-13T01:03:17.269Z,96862.34
2023-05-13T01:13:30.042Z,96884.91
2023-05-13T01:23:36.489Z,96893.78
2023-05-13T01:33:43.715Z,96864.66
2023-05-13T01:43:50.237Z,96833.03
2023-05-13T01:53:56.720Z,96726.53
2023-05-13T02:04:03.352Z,96698.38
2023-05-13T02:14:09.892Z,96677.72
2023-05-13T02:24:16.447Z,96650.09
2023-05-13T02:34:22.892Z,96586.34
2023-05-13T02:44:29.365Z,96522.66
2023-05-13T02:54:35.808Z,96495.66
2023-05-13T03:04:42.737Z,96388.56
2023-05-13T03:14:49.671Z,96244.00
2023-05-13T03:24:56.162Z,96155.97
2023-05-13T03:35:03.086Z,96032.78
2023-05-13T03:45:10.401Z,95983.63
2023-05-13T03:55:16.944Z,95963.66
2023-05-13T04:05:23.617Z,95991.41
2023-05-13T04:15:30.199Z,96046.16
2023-05-13T04:25:37.218Z,96145.16
2023-05-13T04:35:44.072Z,96212.19
2023-05-13T04:45:50.747Z,96300.25
2023-05-13T04:56:02.013Z,96442.94
2023-05-13T05:06:08.590Z,96533.47
2023-05-13T05:16:15.057Z,96612.91
2023-05-13T05:26:22.072Z,96655.81
2023-05-13T05:36:30.838Z,96723.00
2023-05-13T05:46:37.662Z,96610.91
2023-05-13T05:56:44.148Z,96811.69
2023-05-13T06:06:50.673Z,96846.09
2023-05-13T06:16:57.248Z,97034.22
2023-05-13T06:27:04.160Z,97062.28
2023-05-13T06:37:11.068Z,97183.16
2023-05-13T06:47:18.096Z,97274.03
2023-05-13T06:57:32.278Z,97611.50
2023-05-13T07:07:45.757Z,97828.25
2023-05-13T07:17:52.334Z,98135.56
2023-05-13T07:27:59.076Z,98201.94
2023-05-13T07:38:06.071Z,98364.38
2023-05-13T07:48:12.599Z,98395.53
2023-05-13T07:58:20.125Z,98484.28
2023-05-13T08:08:26.570Z,98616.00
2023-05-13T08:18:33.242Z,98605.87
2023-05-13T08:28:39.979Z,98701.59
2023-05-13T08:38:46.621Z,98712.28
2023-05-13T08:48:53.455Z,98737.59
2023-05-13T08:58:59.973Z,98711.50
2023-05-13T09:09:07.239Z,98720.91
2023-05-13T09:19:15.162Z,98712.47
2023-05-13T09:29:24.820Z,98735.00
2023-05-13T09:39:34.123Z,98732.56
2023-05-13T09:49:42.846Z,98709.00
2023-05-13T09:59:49.329Z,98721.00
2023-05-13T10:10:00.465Z,98710.47
2023-05-13T10:20:08.420Z,98697.63
2023-05-13T10:30:15.691Z,98720.53
2023-05-13T10:40:33.249Z,98687.50
2023-05-13T10:50:42.755Z,98729.13
2023-05-13T11:00:49.581Z,98711.81
2023-05-13T11:10:56.372Z,98712.66
2023-05-13T11:21:07.172Z,98694.31
2023-05-13T11:31:18.575Z,98736.13
2023-05-13T11:41:26.064Z,98750.72
2023-05-13T11:51:33.792Z,98730.84
2023-05-13T12:01:40.335Z,98758.91
2023-05-13T12:11:46.955Z,98760.69
2023-05-13T12:21:53.499Z,98756.59
2023-05-13T12:32:07.513Z,98737.00
2023-05-13T12:42:17.478Z,98738.69
2023-05-13T12:52:24.036Z,98728.28
2023-05-13T13:02:30.880Z,98729.34
2023-05-13T13:12:37.531Z,98754.38
2023-05-13T13:22:44.099Z,98736.56
2023-05-13T13:32:50.765Z,98737.19
2023-05-13T13:42:57.273Z,98720.97
2023-05-13T13:53:03.739Z,98732.41
2023-05-13T14:03:10.389Z,98722.88
2023-05-13T14:13:17.065Z,98725.56
2023-05-13T14:23:23.860Z,98726.00
2023-05-13T14:33:30.328Z,98722.53
2023-05-13T14:43:36.847Z,98745.94
2023-05-13T14:53:44.082Z,98738.53
2023-05-13T15:03:50.570Z,98748.03
2023-05-13T15:13:57.141Z,98749.16
2023-05-13T15:24:03.650Z,98745.97
2023-05-13T15:34:10.155Z,98752.44
2023-05-13T15:44:16.701Z,98762.62
2023-05-13T15:54:23.215Z,98748.88
2023-05-13T16:04:29.831Z,98742.44
2023-05-13T16:14:36.446Z,98745.28
2023-05-13T16:24:43.505Z,98751.53
2023-05-13T16:34:50.628Z,98743.09
2023-05-13T16:44:57.312Z,98749.75
2023-05-13T16:55:03.928Z,98739.47
2023-05-13T17:05:10.662Z,98738.72
2023-05-13T17:15:17.286Z,98750.37
2023-05-13T17:25:23.773Z,98756.94
2023-05-13T17:35:30.353Z,98775.50
2023-05-13T17:45:39.777Z,98783.81
2023-05-13T17:55:46.517Z,98786.53
2023-05-13T18:05:53.121Z,98791.38
2023-05-13T18:15:59.773Z,98783.81
2023-05-13T18:26:06.259Z,98784.75
2023-05-13T18:36:12.773Z,98769.28
2023-05-13T18:46:19.261Z,98783.25
2023-05-13T18:56:25.797Z,98740.44
2023-05-13T19:06:33.198Z,98709.34
2023-05-13T19:16:39.742Z,98662.78
2023-05-13T19:26:46.272Z,98619.72
2023-05-13T19:36:52.761Z,98085.84
2023-05-13T19:46:59.708Z,97222.84
2023-05-13T19:57:06.310Z,97036.28
2023-05-13T20:07:12.795Z,97111.38
2023-05-13T20:17:22.535Z,97188.25
2023-05-13T20:27:29.254Z,97233.44
2023-05-13T20:37:36.288Z,97266.13
2023-05-13T20:47:42.891Z,97288.19
2023-05-13T20:57:51.048Z,97232.03
2023-05-13T21:07:57.577Z,97250.78
2023-05-13T21:18:04.780Z,97218.63
2023-05-13T21:28:11.429Z,97218.31
2023-05-13T21:38:17.911Z,97216.44
2023-05-13T21:48:24.582Z,97195.59
2023-05-13T21:58:31.150Z,97097.87
2023-05-13T22:08:37.746Z,97083.81
2023-05-13T22:18:44.505Z,97069.38
2023-05-13T22:28:51.282Z,97053.34
2023-05-13T22:38:57.809Z,96915.41
2023-05-13T22:49:04.629Z,96890.22
2023-05-13T22:59:11.204Z,96924.25
2023-05-13T23:09:17.716Z,96882.16
2023-05-13T23:19:28.003Z,96863.59
2023-05-13T23:29:34.463Z,96885.84
2023-05-13T23:39:40.917Z,96777.53
2023-05-13T23:49:47.476Z,96698.44
2023-05-13T23:59:54.132Z,96703.13
